Time;durP1;ratioP1;P1;durP2;ratioP2;P2;SDS_P1;SDS_P2;PMS_P1;PMS_P2;Temp;Humidity;BMP_temperature;BMP_pressure;BME280_temperature;BME280_humidity;BME280_pressure;Samples;Min_cycle;Max_cycle;Signal;HPM_P1;HPM_P2
2021/05/15 00:00:51;;;;;;;1.17;1.08;;;;;;;;;;4996097;28;20038;-37
2021/05/15 00:03:17;;;;;;;6.10;1.55;;;;;;;;;;4992480;28;20042;-36
2021/05/15 00:05:42;;;;;;;2.60;0.73;;;;;;;;;;4998732;28;20097;-36
2021/05/15 00:08:17;;;;;;;2.00;0.68;;;;;;;;;;4998924;28;20571;-39
2021/05/15 00:10:42;;;;;;;2.08;1.10;;;;;;;;;;4994726;28;20037;-36
2021/05/15 00:13:07;;;;;;;3.90;1.27;;;;;;;;;;4995535;28;20030;-37
2021/05/15 00:15:33;;;;;;;3.08;0.90;;;;;;;;;;4996361;28;20148;-37
2021/05/15 00:17:58;;;;;;;1.45;0.85;;;;;;;;;;5000395;28;20125;-37
2021/05/15 00:20:23;;;;;;;6.10;0.90;;;;;;;;;;4996826;28;20041;-43
2021/05/15 00:22:49;;;;;;;3.20;1.60;;;;;;;;;;4992765;28;20030;-43
2021/05/15 00:25:15;;;;;;;7.05;0.88;;;;;;;;;;5006216;28;20049;-43
2021/05/15 00:27:41;;;;;;;1.55;0.98;;;;;;;;;;5015923;28;20041;-45
2021/05/15 00:30:07;;;;;;;1.85;0.38;;;;;;;;;;5019495;28;20048;-43
2021/05/15 00:32:33;;;;;;;2.20;0.75;;;;;;;;;;5016576;28;20047;-45
2021/05/15 00:34:58;;;;;;;5.25;1.17;;;;;;;;;;5015959;28;20034;-46
2021/05/15 00:37:24;;;;;;;3.00;0.90;;;;;;;;;;5016452;28;20033;-43
2021/05/15 00:39:49;;;;;;;3.15;0.88;;;;;;;;;;5018236;28;20030;-44
2021/05/15 00:42:14;;;;;;;4.68;0.40;;;;;;;;;;5018299;28;20048;-45
2021/05/15 00:44:46;;;;;;;0.52;0.38;;;;;;;;;;5017671;28;20548;-42
2021/05/15 00:47:11;;;;;;;;;;;;;;;;;;5017062;28;20026;-44
2021/05/15 00:49:36;;;;;;;1.77;0.30;;;;;;;;;;5017429;28;19916;-43
2021/05/15 00:52:02;;;;;;;1.05;0.45;;;;;;;;;;5015600;28;20044;-47
2021/05/15 00:54:27;;;;;;;0.95;0.43;;;;;;;;;;5014876;28;20450;-43
2021/05/15 00:56:53;;;;;;;0.65;0.50;;;;;;;;;;5017642;28;20025;-43
2021/05/15 00:59:18;;;;;;;3.20;0.88;;;;;;;;;;5015946;28;20395;-44
2021/05/15 01:01:46;;;;;;;8.77;0.43;;;;;;;;;;5017430;28;20031;-45
2021/05/15 01:04:12;;;;;;;0.75;0.52;;;;;;;;;;5016019;28;20029;-45
2021/05/15 01:06:38;;;;;;;2.50;0.22;;;;;;;;;;5021781;28;20033;-44
2021/05/15 01:09:06;;;;;;;0.65;0.10;;;;;;;;;;5019742;28;20040;-49
2021/05/15 01:12:17;;;;;;;0.65;0.43;;;;;;;;;;5022061;28;20021;-44
2021/05/15 01:14:17;;;;;;;0.93;0.47;;;;;;;;;;5011484;28;20041;-44
2021/05/15 01:16:43;;;;;;;1.08;0.75;;;;;;;;;;5020598;28;20033;-43
2021/05/15 01:19:08;;;;;;;1.75;0.38;;;;;;;;;;5019221;28;20044;-45
2021/05/15 01:21:34;;;;;;;0.50;0.30;;;;;;;;;;5019707;28;20034;-42
2021/05/15 01:24:00;;;;;;;0.35;0.10;;;;;;;;;;5021087;28;20037;-42
2021/05/15 01:26:26;;;;;;;9.80;0.45;;;;;;;;;;5020528;28;20025;-44
2021/05/15 01:29:03;;;;;;;0.70;0.35;;;;;;;;;;5018562;28;20045;-46
2021/05/15 01:31:29;;;;;;;0.28;0.13;;;;;;;;;;5021026;28;20033;-45
2021/05/15 01:33:55;;;;;;;0.85;0.63;;;;;;;;;;5020733;28;20033;-47
2021/05/15 01:36:21;;;;;;;0.08;0.08;;;;;;;;;;5019039;28;20025;-47
2021/05/15 01:38:46;;;;;;;1.45;0.43;;;;;;;;;;5025031;28;20120;-48
2021/05/15 01:41:13;;;;;;;2.22;0.50;;;;;;;;;;5020713;28;20475;-46
2021/05/15 01:43:46;;;;;;;1.65;0.95;;;;;;;;;;5019424;28;20021;-48
2021/05/15 01:46:11;;;;;;;1.08;0.20;;;;;;;;;;5021576;28;20026;-47
2021/05/15 01:48:55;;;;;;;3.80;0.88;;;;;;;;;;5023689;28;20668;-50
2021/05/15 01:51:20;;;;;;;0.38;0.28;;;;;;;;;;5017616;28;20037;-46
2021/05/15 01:53:49;;;;;;;1.73;0.20;;;;;;;;;;5017576;28;20030;-48
2021/05/15 01:56:30;;;;;;;0.20;0.15;;;;;;;;;;5019401;28;20037;-46
2021/05/15 01:58:56;;;;;;;0.80;0.40;;;;;;;;;;5019551;28;20026;-45
2021/05/15 02:01:23;;;;;;;0.90;0.30;;;;;;;;;;5021286;28;20096;-45
2021/05/15 02:03:49;;;;;;;0.30;0.13;;;;;;;;;;5021227;28;20446;-45
2021/05/15 02:06:14;;;;;;;1.25;0.63;;;;;;;;;;5021927;28;20044;-43
2021/05/15 02:08:41;;;;;;;0.05;0.05;;;;;;;;;;5018545;28;20029;-46
2021/05/15 02:11:07;;;;;;;0.28;0.20;;;;;;;;;;5002700;28;20057;-44
2021/05/15 02:13:32;;;;;;;0.25;0.10;;;;;;;;;;5016619;28;20498;-45
2021/05/15 02:15:59;;;;;;;1.65;0.20;;;;;;;;;;5015158;28;20030;-44
2021/05/15 02:18:25;;;;;;;0.00;0.00;;;;;;;;;;5016813;28;20042;-44
2021/05/15 02:20:53;;;;;;;0.40;0.30;;;;;;;;;;5019328;28;20037;-49
2021/05/15 02:23:19;;;;;;;1.35;0.30;;;;;;;;;;5020242;28;20064;-45
2021/05/15 02:25:48;;;;;;;1.27;0.10;;;;;;;;;;5018920;28;20065;-42
2021/05/15 02:28:14;;;;;;;0.10;0.10;;;;;;;;;;5024377;28;20108;-44
2021/05/15 02:30:39;;;;;;;0.28;0.10;;;;;;;;;;5022080;28;20437;-44
2021/05/15 02:33:05;;;;;;;0.68;0.10;;;;;;;;;;5015037;28;20025;-43
2021/05/15 02:35:30;;;;;;;0.85;0.30;;;;;;;;;;5017126;28;20491;-42
2021/05/15 02:37:56;;;;;;;1.38;0.20;;;;;;;;;;5018498;28;20523;-43
2021/05/15 02:40:21;;;;;;;0.38;0.30;;;;;;;;;;5017955;28;20116;-43
2021/05/15 02:42:49;;;;;;;1.20;0.20;;;;;;;;;;5016086;28;20030;-45
2021/05/15 02:45:16;;;;;;;0.68;0.20;;;;;;;;;;5017140;28;20026;-43
2021/05/15 02:47:41;;;;;;;0.17;0.13;;;;;;;;;;5020482;28;20073;-42
2021/05/15 02:50:27;;;;;;;1.15;0.57;;;;;;;;;;5016370;28;20060;-49
2021/05/15 02:52:52;;;;;;;1.00;0.08;;;;;;;;;;5018102;28;20490;-42
2021/05/15 02:55:19;;;;;;;5.38;0.25;;;;;;;;;;5018785;28;20037;-43
2021/05/15 02:57:45;;;;;;;1.92;0.17;;;;;;;;;;5018318;28;20646;-46
2021/05/15 03:00:12;;;;;;;0.75;0.17;;;;;;;;;;5020395;28;20038;-43
2021/05/15 03:02:47;;;;;;;0.93;0.50;;;;;;;;;;5019362;28;20026;-50
2021/05/15 03:05:13;;;;;;;0.90;0.20;;;;;;;;;;5018927;28;20025;-44
2021/05/15 03:07:38;;;;;;;2.33;0.68;;;;;;;;;;5019177;28;20475;-43
2021/05/15 03:10:05;;;;;;;0.75;0.32;;;;;;;;;;5017562;28;20498;-42
2021/05/15 03:12:30;;;;;;;0.40;0.20;;;;;;;;;;5018095;28;20037;-44
2021/05/15 03:14:55;;;;;;;0.90;0.20;;;;;;;;;;5014392;28;20037;-43
2021/05/15 03:17:21;;;;;;;1.70;0.50;;;;;;;;;;5018103;28;20037;-44
2021/05/15 03:19:47;;;;;;;0.50;0.25;;;;;;;;;;5020165;28;20029;-43
2021/05/15 03:22:12;;;;;;;0.25;0.10;;;;;;;;;;5016610;28;20083;-42
2021/05/15 03:24:38;;;;;;;0.40;0.35;;;;;;;;;;5021605;28;20502;-43
2021/05/15 03:27:03;;;;;;;0.10;0.10;;;;;;;;;;5020615;28;20043;-44
2021/05/15 03:29:28;;;;;;;0.47;0.32;;;;;;;;;;5015712;28;20467;-43
2021/05/15 03:31:54;;;;;;;0.10;0.10;;;;;;;;;;5022512;28;20074;-42
2021/05/15 03:34:19;;;;;;;0.57;0.30;;;;;;;;;;5018452;28;20033;-42
2021/05/15 03:36:45;;;;;;;0.50;0.20;;;;;;;;;;5020227;28;20038;-43
2021/05/15 03:39:17;;;;;;;2.65;1.65;;;;;;;;;;5019260;28;20550;-45
2021/05/15 03:41:42;;;;;;;6.68;4.63;;;;;;;;;;5016255;28;20084;-43
2021/05/15 03:44:08;;;;;;;47.97;30.20;;;;;;;;;;5016758;28;20069;-44
2021/05/15 03:46:33;;;;;;;5.15;3.60;;;;;;;;;;5017535;28;20168;-42
2021/05/15 03:48:58;;;;;;;4.78;0.82;;;;;;;;;;5018023;28;20057;-42
2021/05/15 03:51:23;;;;;;;5.57;0.57;;;;;;;;;;5019050;28;20040;-42
2021/05/15 03:53:49;;;;;;;0.63;0.10;;;;;;;;;;5018550;28;20068;-41
2021/05/15 03:56:14;;;;;;;0.15;0.10;;;;;;;;;;5021386;28;20033;-41
2021/05/15 03:58:39;;;;;;;1.85;0.50;;;;;;;;;;5021672;28;20021;-42
2021/05/15 04:01:05;;;;;;;0.17;0.10;;;;;;;;;;5019247;28;20072;-42
2021/05/15 04:03:30;;;;;;;4.53;0.55;;;;;;;;;;5017810;28;20053;-42
2021/05/15 04:05:55;;;;;;;1.55;0.38;;;;;;;;;;5016620;28;20386;-41
2021/05/15 04:08:21;;;;;;;2.05;0.45;;;;;;;;;;5018926;28;20030;-43
2021/05/15 04:10:46;;;;;;;0.00;0.00;;;;;;;;;;5020461;28;20112;-41
2021/05/15 04:13:48;;;;;;;0.10;0.10;;;;;;;;;;5017273;28;20030;-44
2021/05/15 04:16:09;;;;;;;2.05;0.75;;;;;;;;;;5015773;28;20036;-42
2021/05/15 04:18:35;;;;;;;0.45;0.35;;;;;;;;;;5020507;28;20052;-42
2021/05/15 04:21:01;;;;;;;0.75;0.20;;;;;;;;;;5017953;28;20510;-43
2021/05/15 04:23:26;;;;;;;0.73;0.35;;;;;;;;;;5018954;28;20037;-44
2021/05/15 04:25:52;;;;;;;0.35;0.30;;;;;;;;;;5018316;28;20147;-43
2021/05/15 04:28:18;;;;;;;0.30;0.22;;;;;;;;;;5021312;28;20051;-42
2021/05/15 04:30:43;;;;;;;0.00;0.00;;;;;;;;;;5020370;28;20038;-42
2021/05/15 04:33:08;;;;;;;1.50;0.20;;;;;;;;;;5023845;28;20055;-42
2021/05/15 04:35:34;;;;;;;0.43;0.20;;;;;;;;;;5019480;28;20120;-43
2021/05/15 04:37:59;;;;;;;2.35;0.20;;;;;;;;;;5018917;28;20130;-44
2021/05/15 04:40:25;;;;;;;0.40;0.20;;;;;;;;;;5022132;28;20509;-41
2021/05/15 04:42:51;;;;;;;1.17;0.28;;;;;;;;;;5022246;28;20046;-43
2021/05/15 04:45:16;;;;;;;0.52;0.30;;;;;;;;;;5022082;28;20021;-43
2021/05/15 04:47:42;;;;;;;2.53;0.70;;;;;;;;;;5019871;28;20220;-43
2021/05/15 04:50:09;;;;;;;0.70;0.20;;;;;;;;;;5019497;28;20129;-42
2021/05/15 04:52:34;;;;;;;0.15;0.10;;;;;;;;;;5019478;28;20025;-43
2021/05/15 04:55:00;;;;;;;1.30;0.38;;;;;;;;;;5020317;28;20084;-44
2021/05/15 04:57:25;;;;;;;0.10;0.10;;;;;;;;;;5019112;28;20045;-43
2021/05/15 04:59:50;;;;;;;1.05;0.30;;;;;;;;;;5018222;28;20044;-44
2021/05/15 05:02:16;;;;;;;9.60;0.73;;;;;;;;;;5024317;28;20112;-42
2021/05/15 05:04:41;;;;;;;0.55;0.30;;;;;;;;;;5018124;28;20029;-41
2021/05/15 05:07:07;;;;;;;1.08;0.30;;;;;;;;;;5020445;28;20022;-42
2021/05/15 05:09:32;;;;;;;1.83;0.10;;;;;;;;;;5022333;28;20057;-43
2021/05/15 05:11:57;;;;;;;3.92;0.60;;;;;;;;;;5017983;28;20384;-44
2021/05/15 05:14:23;;;;;;;6.35;0.95;;;;;;;;;;5018136;28;20036;-44
2021/05/15 05:16:50;;;;;;;0.70;0.28;;;;;;;;;;5023197;28;20083;-43
2021/05/15 05:19:15;;;;;;;2.50;1.45;;;;;;;;;;5017319;28;20033;-45
2021/05/15 05:21:41;;;;;;;4.47;1.98;;;;;;;;;;5017524;28;20040;-42
2021/05/15 05:24:07;;;;;;;6.38;3.42;;;;;;;;;;5017225;28;20121;-44
2021/05/15 05:26:35;;;;;;;23.95;5.60;;;;;;;;;;5025317;28;20033;-46
2021/05/15 05:29:06;;;;;;;3.58;2.38;;;;;;;;;;5022396;28;20044;-46
2021/05/15 05:31:32;;;;;;;3.10;1.40;;;;;;;;;;5022307;28;20030;-45
2021/05/15 05:33:57;;;;;;;2.17;0.50;;;;;;;;;;5019696;28;20037;-46
2021/05/15 05:36:22;;;;;;;0.88;0.30;;;;;;;;;;5018815;28;20562;-49
2021/05/15 05:38:47;;;;;;;4.78;0.70;;;;;;;;;;5018859;28;20486;-45
2021/05/15 05:41:13;;;;;;;1.45;0.70;;;;;;;;;;5019538;28;20398;-45
2021/05/15 05:43:38;;;;;;;3.20;0.85;;;;;;;;;;5017635;28;20034;-46
2021/05/15 05:46:03;;;;;;;0.82;0.80;;;;;;;;;;5021887;28;20050;-44
2021/05/15 05:48:29;;;;;;;1.65;0.52;;;;;;;;;;5019788;28;20033;-44
2021/05/15 05:50:54;;;;;;;0.45;0.32;;;;;;;;;;5021010;28;20401;-42
2021/05/15 05:53:19;;;;;;;1.33;1.15;;;;;;;;;;5017711;28;20647;-43
2021/05/15 05:55:45;;;;;;;0.98;0.60;;;;;;;;;;5020832;28;20037;-42
2021/05/15 05:58:10;;;;;;;3.08;1.30;;;;;;;;;;5017542;28;20486;-46
2021/05/15 06:00:35;;;;;;;8.70;1.05;;;;;;;;;;5020041;28;20681;-45
2021/05/15 06:03:01;;;;;;;1.52;0.57;;;;;;;;;;5017221;28;20531;-42
2021/05/15 06:05:26;;;;;;;8.98;1.20;;;;;;;;;;5015777;28;20036;-41
2021/05/15 06:07:51;;;;;;;2.85;1.20;;;;;;;;;;5018363;28;20034;-42
2021/05/15 06:10:17;;;;;;;5.13;4.28;;;;;;;;;;5016571;28;20034;-42
2021/05/15 06:12:42;;;;;;;3.85;1.50;;;;;;;;;;5020110;28;20036;-47
2021/05/15 06:15:08;;;;;;;5.07;1.63;;;;;;;;;;5018175;28;20026;-42
2021/05/15 06:17:33;;;;;;;7.68;1.40;;;;;;;;;;5019568;28;20075;-43
2021/05/15 06:20:00;;;;;;;2.30;0.93;;;;;;;;;;5018337;28;20491;-44
2021/05/15 06:22:25;;;;;;;1.08;0.73;;;;;;;;;;5023240;28;20080;-43
2021/05/15 06:24:50;;;;;;;1.95;0.40;;;;;;;;;;5021654;28;20049;-42
2021/05/15 06:27:16;;;;;;;1.25;0.77;;;;;;;;;;5020472;28;20030;-42
2021/05/15 06:29:41;;;;;;;2.10;0.90;;;;;;;;;;5018044;28;20502;-44
2021/05/15 06:32:06;;;;;;;0.40;0.25;;;;;;;;;;5017605;28;20025;-45
2021/05/15 06:34:32;;;;;;;3.85;1.15;;;;;;;;;;5018442;28;20040;-42
2021/05/15 06:36:57;;;;;;;1.17;0.90;;;;;;;;;;5018674;28;20026;-42
2021/05/15 06:39:22;;;;;;;2.17;0.90;;;;;;;;;;5018253;28;20022;-46
2021/05/15 06:41:48;;;;;;;13.40;1.90;;;;;;;;;;5019230;28;20066;-45
2021/05/15 06:44:13;;;;;;;6.70;4.47;;;;;;;;;;5018971;28;20017;-46
2021/05/15 06:46:38;;;;;;;25.52;12.73;;;;;;;;;;5021009;28;20526;-42
2021/05/15 06:49:04;;;;;;;9.88;5.88;;;;;;;;;;5020145;28;20030;-43
2021/05/15 06:51:30;;;;;;;1.98;1.33;;;;;;;;;;5022340;28;20128;-42
2021/05/15 06:53:55;;;;;;;1.40;0.52;;;;;;;;;;5022523;28;20060;-41
2021/05/15 06:56:21;;;;;;;3.33;0.90;;;;;;;;;;5021113;28;20033;-43
2021/05/15 06:58:46;;;;;;;2.30;1.27;;;;;;;;;;5020779;28;20402;-41
2021/05/15 07:01:11;;;;;;;2.13;0.85;;;;;;;;;;5022113;28;20165;-41
2021/05/15 07:03:37;;;;;;;6.78;0.77;;;;;;;;;;5017797;28;20096;-42
2021/05/15 07:06:05;;;;;;;1.58;0.98;;;;;;;;;;5018117;28;20026;-42
2021/05/15 07:08:31;;;;;;;1.38;0.52;;;;;;;;;;5021474;28;20030;-42
2021/05/15 07:10:56;;;;;;;2.53;0.88;;;;;;;;;;5017820;28;20033;-42
2021/05/15 07:13:21;;;;;;;1.45;0.47;;;;;;;;;;5019981;28;20029;-43
2021/05/15 07:15:47;;;;;;;4.30;1.50;;;;;;;;;;5021815;28;20384;-41
2021/05/15 07:18:12;;;;;;;0.98;0.88;;;;;;;;;;5019885;28;20034;-45
2021/05/15 07:20:37;;;;;;;3.13;1.42;;;;;;;;;;5019205;28;20026;-44
2021/05/15 07:23:07;;;;;;;2.80;0.82;;;;;;;;;;5018084;28;20030;-41
2021/05/15 07:25:32;;;;;;;0.70;0.43;;;;;;;;;;5017332;28;20053;-43
2021/05/15 07:27:57;;;;;;;2.17;1.35;;;;;;;;;;5018015;28;20146;-42
2021/05/15 07:30:22;;;;;;;2.03;0.20;;;;;;;;;;5018628;28;20040;-42
2021/05/15 07:32:48;;;;;;;0.70;0.50;;;;;;;;;;5019326;28;20544;-42
2021/05/15 07:35:14;;;;;;;2.72;0.85;;;;;;;;;;5018279;28;20046;-41
2021/05/15 07:37:39;;;;;;;6.28;4.68;;;;;;;;;;5018327;28;20029;-45
2021/05/15 07:40:05;;;;;;;8.40;4.47;;;;;;;;;;5017254;28;20061;-42
2021/05/15 07:42:30;;;;;;;4.07;2.08;;;;;;;;;;5017171;28;20030;-42
2021/05/15 07:44:56;;;;;;;4.72;3.97;;;;;;;;;;5018358;28;20021;-44
2021/05/15 07:47:21;;;;;;;1.73;0.65;;;;;;;;;;5020031;28;20057;-43
2021/05/15 07:49:46;;;;;;;2.85;1.15;;;;;;;;;;5017764;28;20025;-42
2021/05/15 07:52:12;;;;;;;1.60;0.65;;;;;;;;;;5018938;28;20083;-44
2021/05/15 07:54:37;;;;;;;1.70;0.47;;;;;;;;;;5017486;28;20030;-43
2021/05/15 07:57:02;;;;;;;4.47;1.17;;;;;;;;;;5017381;28;20502;-44
2021/05/15 07:59:28;;;;;;;2.78;1.00;;;;;;;;;;5017457;28;20131;-41
2021/05/15 08:01:53;;;;;;;8.43;3.28;;;;;;;;;;5018697;28;20513;-42
2021/05/15 08:04:18;;;;;;;3.40;1.40;;;;;;;;;;5017487;28;20032;-42
2021/05/15 08:06:43;;;;;;;7.05;2.70;;;;;;;;;;5019436;28;20057;-44
2021/05/15 08:09:09;;;;;;;6.93;1.13;;;;;;;;;;5018642;28;20053;-41
2021/05/15 08:11:37;;;;;;;2.85;1.42;;;;;;;;;;5019490;28;20071;-41
2021/05/15 08:14:04;;;;;;;6.43;1.20;;;;;;;;;;5015781;28;20491;-41
2021/05/15 08:16:31;;;;;;;3.60;1.88;;;;;;;;;;5019640;28;20038;-42
2021/05/15 08:18:57;;;;;;;1.20;0.57;;;;;;;;;;5019185;28;20041;-42
2021/05/15 08:21:22;;;;;;;5.88;0.85;;;;;;;;;;5020024;28;20029;-42
2021/05/15 08:23:47;;;;;;;1.38;0.77;;;;;;;;;;5020140;28;20672;-42
2021/05/15 08:26:13;;;;;;;6.40;1.33;;;;;;;;;;5017149;28;20053;-45
2021/05/15 08:28:41;;;;;;;3.47;0.70;;;;;;;;;;5019502;28;20041;-41
2021/05/15 08:31:10;;;;;;;1.85;0.68;;;;;;;;;;5015800;28;20495;-41
2021/05/15 08:33:35;;;;;;;5.68;0.85;;;;;;;;;;5018003;28;20083;-43
2021/05/15 08:36:00;;;;;;;3.50;0.90;;;;;;;;;;5014177;28;20380;-45
2021/05/15 08:38:26;;;;;;;2.00;1.00;;;;;;;;;;5015202;28;20057;-43
2021/05/15 08:40:51;;;;;;;8.55;1.58;;;;;;;;;;5019427;28;20490;-46
2021/05/15 08:43:16;;;;;;;1.80;1.45;;;;;;;;;;5015836;28;20034;-42
2021/05/15 08:45:43;;;;;;;4.22;1.83;;;;;;;;;;5020171;28;20026;-42
2021/05/15 08:48:10;;;;;;;7.57;2.13;;;;;;;;;;5015912;28;20022;-46
2021/05/15 08:50:36;;;;;;;2.83;1.08;;;;;;;;;;5018304;28;20048;-44
2021/05/15 08:53:01;;;;;;;2.13;0.93;;;;;;;;;;5017347;28;20029;-45
2021/05/15 08:55:28;;;;;;;3.05;1.45;;;;;;;;;;5017288;28;20033;-43
2021/05/15 08:57:54;;;;;;;7.15;0.93;;;;;;;;;;5016090;28;20037;-44
2021/05/15 09:00:21;;;;;;;14.38;1.33;;;;;;;;;;5017935;28;20034;-42
2021/05/15 09:02:47;;;;;;;7.68;1.75;;;;;;;;;;5021037;28;20158;-44
2021/05/15 09:05:13;;;;;;;4.65;1.30;;;;;;;;;;5018981;28;20029;-46
2021/05/15 09:07:39;;;;;;;7.68;3.30;;;;;;;;;;5016762;28;20034;-43
2021/05/15 09:10:06;;;;;;;2.47;1.55;;;;;;;;;;5019496;28;20057;-43
2021/05/15 09:12:32;;;;;;;9.38;1.02;;;;;;;;;;5014013;28;20042;-46
2021/05/15 09:14:58;;;;;;;3.95;0.98;;;;;;;;;;5021224;28;20735;-45
2021/05/15 09:17:23;;;;;;;8.25;1.45;;;;;;;;;;5015288;28;20036;-45
2021/05/15 09:19:52;;;;;;;2.05;1.05;;;;;;;;;;5011818;28;20042;-44
2021/05/15 09:22:24;;;;;;;29.17;1.52;;;;;;;;;;5014787;28;20459;-46
2021/05/15 09:24:49;;;;;;;4.53;1.67;;;;;;;;;;5015828;28;20045;-43
2021/05/15 09:27:14;;;;;;;6.55;3.45;;;;;;;;;;5017112;28;20408;-44
2021/05/15 09:29:44;;;;;;;14.63;11.18;;;;;;;;;;5019261;28;20487;-48
2021/05/15 09:32:09;;;;;;;7.95;3.97;;;;;;;;;;5016500;28;20021;-47
2021/05/15 09:34:49;;;;;;;2.38;1.27;;;;;;;;;;5024645;28;20587;-47
2021/05/15 09:37:27;;;;;;;6.72;1.20;;;;;;;;;;5021761;28;20481;-48
2021/05/15 09:39:53;;;;;;;13.55;6.80;;;;;;;;;;5020849;28;20033;-46
2021/05/15 09:42:18;;;;;;;10.88;7.32;;;;;;;;;;5022035;28;20092;-46
2021/05/15 09:44:44;;;;;;;15.88;6.80;;;;;;;;;;5021396;28;20037;-48
2021/05/15 09:47:09;;;;;;;3.65;1.80;;;;;;;;;;5021777;28;20030;-45
2021/05/15 09:49:36;;;;;;;1.55;0.88;;;;;;;;;;5019759;28;20741;-47
2021/05/15 09:52:05;;;;;;;9.05;6.18;;;;;;;;;;5018287;28;20048;-43
2021/05/15 09:54:40;;;;;;;11.27;5.05;;;;;;;;;;5019647;28;20034;-45
2021/05/15 09:57:11;;;;;;;4.38;1.02;;;;;;;;;;5019221;28;20029;-43
2021/05/15 09:59:38;;;;;;;2.58;1.33;;;;;;;;;;5024565;28;20030;-43
2021/05/15 10:02:05;;;;;;;4.32;0.93;;;;;;;;;;5020228;28;20029;-46
2021/05/15 10:04:30;;;;;;;6.18;4.70;;;;;;;;;;5018441;28;20107;-44
2021/05/15 10:06:56;;;;;;;16.38;12.55;;;;;;;;;;5002388;28;20116;-45
2021/05/15 10:09:32;;;;;;;5.30;1.98;;;;;;;;;;5020009;28;20033;-43
2021/05/15 10:11:58;;;;;;;6.53;1.17;;;;;;;;;;5022310;28;20033;-42
2021/05/15 10:14:23;;;;;;;6.93;1.60;;;;;;;;;;5020180;28;20033;-44
2021/05/15 10:16:48;;;;;;;7.32;0.90;;;;;;;;;;5020997;28;20116;-44
2021/05/15 10:19:14;;;;;;;2.92;1.30;;;;;;;;;;5021487;28;20057;-44
2021/05/15 10:21:40;;;;;;;1.92;0.90;;;;;;;;;;5020597;28;20104;-42
2021/05/15 10:24:05;;;;;;;2.03;1.30;;;;;;;;;;5021356;28;20468;-46
2021/05/15 10:26:32;;;;;;;8.93;1.60;;;;;;;;;;5022404;28;20040;-45
2021/05/15 10:28:59;;;;;;;2.15;0.80;;;;;;;;;;5017611;28;20034;-46
2021/05/15 10:31:34;;;;;;;3.28;0.82;;;;;;;;;;5022666;28;20258;-43
2021/05/15 10:34:00;;;;;;;4.82;1.33;;;;;;;;;;5020033;28;20029;-43
2021/05/15 10:36:26;;;;;;;10.13;2.00;;;;;;;;;;5019671;28;20088;-45
2021/05/15 10:38:52;;;;;;;2.53;1.33;;;;;;;;;;5019836;28;20029;-42
2021/05/15 10:41:25;;;;;;;3.80;1.25;;;;;;;;;;5014973;28;20033;-44
2021/05/15 10:43:51;;;;;;;2.85;1.10;;;;;;;;;;5019178;28;20038;-43
2021/05/15 10:46:21;;;;;;;15.77;2.60;;;;;;;;;;5018261;28;20030;-44
2021/05/15 10:49:06;;;;;;;3.92;0.65;;;;;;;;;;5018839;28;20642;-44
2021/05/15 10:51:34;;;;;;;2.67;1.35;;;;;;;;;;5021597;28;20037;-43
2021/05/15 10:53:59;;;;;;;3.72;2.40;;;;;;;;;;5020390;28;20446;-46
2021/05/15 10:56:28;;;;;;;4.40;1.13;;;;;;;;;;5018212;28;20026;-48
2021/05/15 10:59:02;;;;;;;2.42;1.38;;;;;;;;;;5019301;28;20456;-49
2021/05/15 11:01:27;;;;;;;2.95;0.65;;;;;;;;;;5018855;28;20037;-48
2021/05/15 11:03:53;;;;;;;4.53;0.77;;;;;;;;;;5016399;28;20084;-46
2021/05/15 11:06:19;;;;;;;2.22;1.17;;;;;;;;;;5018278;28;20030;-44
2021/05/15 11:09:04;;;;;;;6.88;2.28;;;;;;;;;;5021524;28;20164;-46
2021/05/15 11:11:40;;;;;;;2.80;0.93;;;;;;;;;;5017779;28;20033;-43
2021/05/15 11:14:25;;;;;;;1.75;1.30;;;;;;;;;;5017513;28;20037;-45
2021/05/15 11:17:03;;;;;;;4.35;1.27;;;;;;;;;;5018079;28;20471;-45
2021/05/15 11:19:28;;;;;;;3.65;1.35;;;;;;;;;;5017431;28;20061;-44
2021/05/15 11:21:53;;;;;;;5.68;1.05;;;;;;;;;;5016633;28;20399;-42
2021/05/15 11:24:27;;;;;;;8.25;1.40;;;;;;;;;;5020900;28;20041;-45
2021/05/15 11:26:55;;;;;;;18.40;1.75;;;;;;;;;;5017471;28;20049;-45
2021/05/15 11:29:30;;;;;;;5.53;1.67;;;;;;;;;;5015541;28;20051;-43
2021/05/15 11:32:03;;;;;;;0.85;0.50;;;;;;;;;;5018072;28;20061;-48
2021/05/15 11:34:29;;;;;;;1.40;0.75;;;;;;;;;;5018125;28;20030;-42
2021/05/15 11:36:54;;;;;;;1.75;0.60;;;;;;;;;;5016326;28;20117;-43
2021/05/15 11:39:20;;;;;;;4.30;1.00;;;;;;;;;;5018128;28;20415;-43
2021/05/15 11:41:45;;;;;;;6.90;0.90;;;;;;;;;;5017187;28;20479;-43
2021/05/15 11:44:10;;;;;;;1.67;0.73;;;;;;;;;;5020265;28;20117;-44
2021/05/15 11:46:35;;;;;;;8.63;1.85;;;;;;;;;;5017092;28;20465;-44
2021/05/15 11:49:01;;;;;;;0.95;0.38;;;;;;;;;;5017580;28;20053;-47
2021/05/15 11:51:26;;;;;;;12.30;1.55;;;;;;;;;;5020204;28;20026;-42
2021/05/15 11:53:54;;;;;;;3.35;1.90;;;;;;;;;;5017532;28;20368;-47
2021/05/15 11:56:25;;;;;;;2.63;1.83;;;;;;;;;;5020966;28;20026;-45
2021/05/15 11:58:52;;;;;;;3.50;0.57;;;;;;;;;;5018404;28;20045;-43
2021/05/15 12:01:23;;;;;;;1.33;0.60;;;;;;;;;;5018127;28;20042;-43
2021/05/15 12:03:49;;;;;;;4.38;1.15;;;;;;;;;;5020342;28;20091;-43
2021/05/15 12:06:16;;;;;;;6.65;1.83;;;;;;;;;;5016056;28;20112;-42
2021/05/15 12:08:41;;;;;;;7.40;2.83;;;;;;;;;;5019288;28;20502;-43
2021/05/15 12:11:07;;;;;;;4.28;0.50;;;;;;;;;;5017875;28;20116;-43
2021/05/15 12:13:32;;;;;;;3.67;1.33;;;;;;;;;;5016765;28;20091;-42
2021/05/15 12:16:00;;;;;;;5.80;2.35;;;;;;;;;;5017240;28;20033;-42
2021/05/15 12:18:26;;;;;;;5.03;1.85;;;;;;;;;;5019628;28;20042;-44
2021/05/15 12:20:51;;;;;;;6.20;1.48;;;;;;;;;;5019412;28;20040;-42
2021/05/15 12:23:26;;;;;;;3.72;1.23;;;;;;;;;;5020311;28;20022;-45
2021/05/15 12:26:08;;;;;;;14.30;1.33;;;;;;;;;;5015822;28;20046;-44
2021/05/15 12:28:41;;;;;;;2.95;1.00;;;;;;;;;;5019095;28;20462;-42
2021/05/15 12:31:18;;;;;;;3.13;1.52;;;;;;;;;;5017284;28;20030;-45
2021/05/15 12:33:43;;;;;;;5.38;1.52;;;;;;;;;;5019327;28;20394;-42
2021/05/15 12:36:09;;;;;;;4.30;1.80;;;;;;;;;;5015764;28;20140;-44
2021/05/15 12:38:44;;;;;;;3.00;1.17;;;;;;;;;;5017103;28;20041;-42
2021/05/15 12:41:11;;;;;;;5.53;2.50;;;;;;;;;;5016640;28;20044;-43
2021/05/15 12:43:38;;;;;;;1.08;0.57;;;;;;;;;;5002816;28;20030;-44
2021/05/15 12:46:07;;;;;;;1.67;0.95;;;;;;;;;;5014797;28;20510;-44
2021/05/15 12:48:36;;;;;;;5.60;1.17;;;;;;;;;;5017552;28;20038;-43
2021/05/15 12:51:06;;;;;;;1.05;0.70;;;;;;;;;;5021388;28;20033;-42
2021/05/15 12:53:31;;;;;;;6.43;1.50;;;;;;;;;;5018739;28;20077;-45
2021/05/15 12:55:57;;;;;;;6.80;2.50;;;;;;;;;;5018160;28;20022;-44
2021/05/15 12:58:24;;;;;;;5.63;1.70;;;;;;;;;;5019249;28;20109;-43
2021/05/15 13:00:52;;;;;;;1.52;0.70;;;;;;;;;;5017718;28;20084;-43
2021/05/15 13:03:17;;;;;;;4.82;1.38;;;;;;;;;;5020181;28;20034;-44
2021/05/15 13:05:46;;;;;;;3.35;1.45;;;;;;;;;;5020071;28;20063;-46
2021/05/15 13:08:11;;;;;;;6.95;2.05;;;;;;;;;;5020555;28;20030;-45
2021/05/15 13:10:37;;;;;;;2.05;0.90;;;;;;;;;;5021063;28;20589;-48
2021/05/15 13:13:03;;;;;;;3.13;1.52;;;;;;;;;;5019498;28;20033;-43
2021/05/15 13:15:31;;;;;;;5.22;1.33;;;;;;;;;;5019228;28;20056;-46
2021/05/15 13:18:03;;;;;;;4.13;1.35;;;;;;;;;;5018870;28;20553;-46
2021/05/15 13:20:29;;;;;;;20.08;14.50;;;;;;;;;;5023244;28;20041;-46
2021/05/15 13:22:54;;;;;;;2.38;1.02;;;;;;;;;;5022439;28;20044;-45
2021/05/15 13:25:19;;;;;;;13.60;1.95;;;;;;;;;;5020987;28;20500;-49
2021/05/15 13:27:45;;;;;;;1.80;0.85;;;;;;;;;;5022797;28;20035;-46
2021/05/15 13:30:10;;;;;;;3.45;0.73;;;;;;;;;;5020514;28;20498;-47
2021/05/15 13:32:36;;;;;;;4.10;1.33;;;;;;;;;;5022976;28;20548;-46
2021/05/15 13:35:03;;;;;;;3.30;0.95;;;;;;;;;;5023228;28;20455;-43
2021/05/15 13:37:29;;;;;;;6.55;1.55;;;;;;;;;;5024014;28;20038;-48
2021/05/15 13:39:55;;;;;;;10.43;1.80;;;;;;;;;;5019092;28;20037;-47
2021/05/15 13:42:21;;;;;;;3.05;1.27;;;;;;;;;;5022589;28;20883;-44
2021/05/15 13:44:46;;;;;;;2.95;0.90;;;;;;;;;;5019726;28;20034;-43
2021/05/15 13:47:12;;;;;;;5.93;1.10;;;;;;;;;;5021905;28;20068;-45
2021/05/15 13:49:37;;;;;;;14.20;1.77;;;;;;;;;;5019412;28;20491;-43
2021/05/15 13:52:03;;;;;;;3.97;0.70;;;;;;;;;;5021235;28;20044;-42
2021/05/15 13:54:28;;;;;;;3.38;1.30;;;;;;;;;;5023153;28;20034;-45
2021/05/15 13:56:53;;;;;;;3.72;1.52;;;;;;;;;;5019980;28;20037;-42
2021/05/15 13:59:19;;;;;;;4.50;0.93;;;;;;;;;;5020818;28;20088;-47
2021/05/15 14:01:44;;;;;;;4.05;1.40;;;;;;;;;;5020478;28;20406;-46
2021/05/15 14:04:09;;;;;;;7.35;1.25;;;;;;;;;;5018268;28;20033;-44
2021/05/15 14:06:34;;;;;;;4.50;1.63;;;;;;;;;;5018312;28;20497;-45
2021/05/15 14:09:00;;;;;;;1.63;1.05;;;;;;;;;;5017077;28;20026;-46
2021/05/15 14:11:26;;;;;;;6.97;1.77;;;;;;;;;;5017723;28;20041;-44
2021/05/15 14:13:52;;;;;;;3.65;1.60;;;;;;;;;;5020150;28;20080;-44
2021/05/15 14:16:17;;;;;;;2.38;1.27;;;;;;;;;;5019927;28;20499;-47
2021/05/15 14:18:42;;;;;;;2.75;1.63;;;;;;;;;;5015584;28;20087;-43
2021/05/15 14:21:08;;;;;;;3.67;1.92;;;;;;;;;;5018246;28;20079;-43
2021/05/15 14:23:33;;;;;;;5.65;1.67;;;;;;;;;;5021860;28;20034;-43
2021/05/15 14:25:59;;;;;;;6.53;1.30;;;;;;;;;;5020420;28;20188;-49
2021/05/15 14:28:24;;;;;;;9.73;1.05;;;;;;;;;;5017741;28;20033;-46
2021/05/15 14:30:49;;;;;;;6.35;2.20;;;;;;;;;;5016957;28;20133;-44
2021/05/15 14:33:15;;;;;;;7.30;1.10;;;;;;;;;;5020191;28;20525;-43
2021/05/15 14:35:40;;;;;;;5.22;2.03;;;;;;;;;;5020650;28;20514;-42
2021/05/15 14:38:06;;;;;;;7.15;1.50;;;;;;;;;;5019795;28;20084;-46
2021/05/15 14:40:32;;;;;;;2.17;1.33;;;;;;;;;;5018576;28;20038;-44